createdAt,value
2018-06-06T04:35:24.430Z,1036
2018-06-06T04:36:24.578Z,1060
2018-06-06T04:38:16.018Z,1056
2018-06-06T04:44:14.962Z,1188
2018-06-06T04:45:16.877Z,1260
2018-06-06T04:48:22.615Z,1340
2018-06-06T04:49:49.338Z,1320
2018-06-06T04:51:03.806Z,1272
2018-06-06T05:03:21.173Z,1200
2018-06-06T05:03:41.353Z,1204
2018-06-06T05:05:25.439Z,1192
2018-06-06T05:05:45.673Z,1192
2018-06-06T05:06:40.080Z,1176
2018-06-06T05:07:36.122Z,1156
2018-06-06T05:09:40.491Z,1144
2018-06-06T05:10:00.616Z,1144
2018-06-06T05:10:55.248Z,1192
2018-06-06T05:11:15.401Z,1220
2018-06-06T05:11:35.585Z,1244
2018-06-06T05:11:55.765Z,1260
2018-06-06T05:12:15.945Z,1264
2018-06-06T05:12:36.124Z,1280
2018-06-06T05:12:56.292Z,1284
2018-06-06T05:13:16.440Z,1288
2018-06-06T05:13:36.644Z,1292
2018-06-06T05:13:56.783Z,1300
2018-06-06T05:14:16.970Z,1312
2018-06-06T05:14:37.131Z,1332
2018-06-06T05:14:57.333Z,1360
2018-06-06T05:15:17.479Z,1376
2018-06-06T05:15:37.632Z,1392
2018-06-06T05:15:57.830Z,1408
2018-06-06T05:16:18.037Z,1424
2018-06-06T05:16:38.196Z,1428
2018-06-06T05:16:58.385Z,1428
2018-06-06T05:17:18.556Z,1428
2018-06-06T05:17:38.756Z,1424
2018-06-06T05:17:58.940Z,1420
2018-06-06T05:18:19.150Z,1412
2018-06-06T05:18:39.329Z,1404
2018-06-06T05:18:59.492Z,1388
2018-06-06T05:19:19.679Z,1380
2018-06-06T05:19:39.858Z,1368
2018-06-06T05:20:00.023Z,1360
2018-06-06T05:20:20.216Z,1352
2018-06-06T05:20:40.397Z,1348
2018-06-06T05:21:00.617Z,1336
2018-06-06T05:21:20.774Z,1328
2018-06-06T05:21:40.946Z,1320
2018-06-06T05:22:01.104Z,1320
2018-06-06T05:22:21.264Z,1312
2018-06-06T05:22:41.482Z,1308
2018-06-06T05:23:01.656Z,1308
2018-06-06T05:23:21.765Z,1312
2018-06-06T05:23:41.960Z,1320
2018-06-06T05:24:02.184Z,1332
2018-06-06T05:24:22.426Z,1348
2018-06-06T05:24:42.650Z,1368
2018-06-06T05:25:02.877Z,1380
2018-06-06T05:25:23.076Z,1384
2018-06-06T05:25:43.228Z,1388
2018-06-06T05:26:03.379Z,1388
2018-06-06T05:26:23.535Z,1396
2018-06-06T05:26:43.739Z,1396
2018-06-06T05:27:03.978Z,1396
2018-06-06T05:27:24.133Z,1396
2018-06-06T05:28:03.909Z,1412
2018-06-06T05:28:24.086Z,1416
2018-06-06T05:28:44.276Z,1420
2018-06-06T05:29:04.494Z,1420
2018-06-06T05:52:17.826Z,1144
2018-06-06T05:53:22.397Z,1136
2018-06-06T05:54:33.387Z,1128
2018-06-06T05:55:18.542Z,1116
2018-06-06T05:55:38.709Z,1116
2018-06-06T05:55:58.889Z,1116
2018-06-06T05:56:19.154Z,1112
2018-06-06T05:56:39.306Z,1112
2018-06-06T05:56:59.501Z,1112
2018-06-06T05:57:19.718Z,1112
2018-06-06T05:57:39.832Z,1108
2018-06-06T05:58:00.006Z,1104
2018-06-06T05:58:20.180Z,1104
2018-06-06T05:58:40.399Z,1104
2018-06-06T05:59:00.558Z,1104
2018-06-06T05:59:20.737Z,1104
2018-06-06T05:59:40.893Z,1104
2018-06-06T06:00:01.031Z,1104
2018-06-06T06:00:21.231Z,1108
2018-06-06T06:00:41.408Z,1100
2018-06-06T06:01:01.589Z,1100
2018-06-06T06:01:21.779Z,1100
2018-06-06T06:01:42.006Z,1104
2018-06-06T06:02:02.170Z,1104
2018-06-06T06:02:22.356Z,1104
2018-06-06T06:02:42.682Z,1096
2018-06-06T06:03:02.821Z,1104
2018-06-06T06:03:23.078Z,1108
2018-06-06T06:03:43.229Z,1104
2018-06-06T06:04:03.363Z,1112
2018-06-06T06:04:23.520Z,1116
2018-06-06T06:04:43.692Z,1116
2018-06-06T06:05:03.838Z,1116
2018-06-06T06:05:24.001Z,1120
2018-06-06T06:05:44.185Z,1120
2018-06-06T06:06:04.435Z,1120
2018-06-06T06:06:24.599Z,1120
2018-06-06T06:06:44.787Z,1120
2018-06-06T06:07:04.942Z,1124
2018-06-06T06:07:25.090Z,1128
2018-06-06T06:07:45.264Z,1128
2018-06-06T06:08:05.472Z,1124
2018-06-06T06:08:25.703Z,1124
2018-06-06T06:08:45.832Z,1120
2018-06-06T06:09:05.985Z,1116
2018-06-06T06:09:26.142Z,1116
2018-06-06T06:09:46.377Z,1112
2018-06-06T06:10:06.558Z,1112
2018-06-06T06:10:26.720Z,1120
2018-06-06T06:10:46.889Z,1120
2018-06-06T06:11:07.071Z,1116
2018-06-06T06:11:27.249Z,1116
2018-06-06T06:11:47.401Z,1120
2018-06-06T06:12:07.722Z,1124
2018-06-06T06:12:27.892Z,1124
2018-06-06T06:12:48.116Z,1120
2018-06-06T06:13:08.302Z,1096
2018-06-06T06:13:28.549Z,1096
2018-06-06T06:13:48.762Z,1092
2018-06-06T06:14:38.331Z,1104
2018-06-06T06:14:58.529Z,1136
2018-06-06T06:15:18.717Z,1140
2018-06-06T06:15:38.900Z,1140
2018-06-06T06:15:59.059Z,1136
2018-06-06T06:16:19.310Z,1140
2018-06-06T06:16:39.541Z,1132
2018-06-06T06:17:00.692Z,1140
2018-06-06T06:17:20.723Z,1144
2018-06-06T06:17:41.000Z,1132
2018-06-06T06:18:01.172Z,1132
2018-06-06T06:18:21.354Z,1136
2018-06-06T06:18:41.531Z,1132
2018-06-06T06:19:01.754Z,1124
2018-06-06T06:19:21.951Z,1140
2018-06-06T06:19:42.203Z,1140
2018-06-06T06:20:02.361Z,1132
2018-06-06T06:20:22.672Z,1116
2018-06-06T06:20:42.882Z,1116
2018-06-06T06:21:03.046Z,1132
2018-06-06T06:21:23.215Z,1120
2018-06-06T06:21:43.407Z,1116
2018-06-06T06:22:03.583Z,1140
2018-06-06T06:22:23.777Z,1152
2018-06-06T06:22:44.018Z,1156
2018-06-06T06:23:04.157Z,1160
2018-06-06T06:23:24.335Z,1164
2018-06-06T06:23:44.543Z,1164
2018-06-06T06:24:04.704Z,1168
2018-06-06T06:24:24.898Z,1172
2018-06-06T06:24:45.105Z,1176
2018-06-06T06:25:05.261Z,1172
2018-06-06T06:25:25.452Z,1176
2018-06-06T06:25:45.648Z,1176
2018-06-06T06:26:05.792Z,1176
2018-06-06T06:26:25.928Z,1172
2018-06-06T06:26:46.130Z,1172
2018-06-06T06:27:06.299Z,1168
2018-06-06T06:27:26.474Z,1168
2018-06-06T06:27:46.679Z,1168
2018-06-06T06:28:06.852Z,1168
2018-06-06T06:28:27.030Z,1168
2018-06-06T06:28:47.244Z,1168
2018-06-06T06:29:07.435Z,1164
2018-06-06T06:29:27.609Z,1160
2018-06-06T06:29:47.797Z,1168
2018-06-06T06:30:07.998Z,1168
2018-06-06T06:30:28.151Z,1168
2018-06-06T06:30:48.306Z,1176
2018-06-06T06:31:08.476Z,1180
2018-06-06T06:31:28.639Z,1188
2018-06-06T06:31:48.777Z,1200
2018-06-06T06:32:08.971Z,1208
2018-06-06T06:32:29.117Z,1224
2018-06-06T06:32:49.328Z,1236
2018-06-06T06:33:09.566Z,1256
2018-06-06T06:33:29.869Z,1276
2018-06-06T06:33:50.829Z,1304
2018-06-06T06:34:11.111Z,1320
2018-06-06T06:34:31.321Z,1340
2018-06-06T06:34:51.541Z,1352
2018-06-06T06:35:11.729Z,1356
2018-06-06T06:35:32.007Z,1360
2018-06-06T06:35:52.201Z,1356
2018-06-06T06:36:13.457Z,1360
2018-06-06T06:36:33.686Z,1368
2018-06-06T06:36:54.036Z,1376
2018-06-06T06:37:14.306Z,1388
2018-06-06T06:37:34.456Z,1396
2018-06-06T06:37:54.649Z,1404
2018-06-06T06:38:14.913Z,1408
2018-06-06T06:38:35.174Z,1428
2018-06-06T06:38:55.340Z,1452
2018-06-06T06:39:15.539Z,1468
2018-06-06T06:39:35.910Z,1508
2018-06-06T06:39:56.129Z,1552
2018-06-06T06:40:16.275Z,1600
2018-06-06T06:40:36.548Z,1648
2018-06-06T06:40:56.892Z,1684
2018-06-06T06:41:17.076Z,1712
2018-06-06T06:41:37.510Z,1732
2018-06-06T06:41:57.704Z,1732
2018-06-06T06:42:17.907Z,1736
2018-06-06T06:42:38.116Z,1724
2018-06-06T06:42:58.284Z,1712
2018-06-06T06:43:18.567Z,1688
2018-06-06T06:43:38.913Z,1648
2018-06-06T06:43:59.191Z,1608
2018-06-06T06:44:19.395Z,1564
2018-06-06T06:44:39.593Z,1528
2018-06-06T06:44:59.851Z,1492
2018-06-06T06:45:20.068Z,1464
2018-06-06T06:45:40.231Z,1440
2018-06-06T06:46:00.406Z,1420
2018-06-06T06:46:20.530Z,1408
2018-06-06T06:46:40.834Z,1392
2018-06-06T06:47:01.024Z,1388
2018-06-06T06:47:21.238Z,1384
2018-06-06T06:47:41.314Z,1372
2018-06-06T06:48:01.480Z,1356
2018-06-06T06:48:21.674Z,1348
2018-06-06T06:48:41.838Z,1340
2018-06-06T06:49:02.015Z,1328
2018-06-06T06:49:22.247Z,1312
2018-06-06T06:49:42.461Z,1292
2018-06-06T06:50:02.622Z,1276
2018-06-06T06:50:22.806Z,1260
2018-06-06T06:50:42.727Z,1248
2018-06-06T06:51:02.942Z,1232
2018-06-06T06:51:23.228Z,1228
2018-06-06T06:51:43.425Z,1212
2018-06-06T06:52:03.726Z,1208
2018-06-06T06:52:24.430Z,1200
2018-06-06T06:52:44.718Z,1196
2018-06-06T06:53:04.972Z,1192
2018-06-06T06:53:25.229Z,1188
2018-06-06T06:53:45.361Z,1184
2018-06-06T06:54:05.840Z,1176
2018-06-06T06:54:26.048Z,1176
2018-06-06T06:54:46.275Z,1172
2018-06-06T06:55:06.567Z,1168
2018-06-06T06:55:26.864Z,1164
2018-06-06T06:55:47.009Z,1160
2018-06-06T06:56:07.213Z,1152
2018-06-06T06:56:27.383Z,1152
2018-06-06T06:56:47.629Z,1148
2018-06-06T06:57:07.801Z,1144
2018-06-06T06:57:27.998Z,1144
2018-06-06T06:57:48.158Z,1140
2018-06-06T06:58:08.322Z,1136
2018-06-06T06:58:28.575Z,1132
2018-06-06T06:58:48.743Z,1132
2018-06-06T06:59:08.899Z,1128
2018-06-06T06:59:29.061Z,1128
2018-06-06T06:59:49.225Z,1128
2018-06-06T07:00:09.520Z,1132
2018-06-06T07:00:29.730Z,1140
2018-06-06T07:00:49.927Z,1140
2018-06-06T07:01:10.153Z,1140
2018-06-06T07:01:30.335Z,1144
2018-06-06T07:01:50.500Z,1144
2018-06-06T07:02:10.671Z,1148
2018-06-06T07:02:30.848Z,1148
2018-06-06T07:02:51.014Z,1148
2018-06-06T07:03:11.268Z,1148
2018-06-06T07:03:31.469Z,1148
2018-06-06T07:03:51.638Z,1148
2018-06-06T07:04:11.848Z,1148
2018-06-06T07:04:32.037Z,1148
2018-06-06T07:04:52.253Z,1148
2018-06-06T07:05:12.508Z,1148
2018-06-06T07:05:32.802Z,1148
2018-06-06T07:05:52.967Z,1148
2018-06-06T07:06:13.158Z,1148
2018-06-06T07:06:33.321Z,1148
2018-06-06T07:06:53.560Z,1152
2018-06-06T07:07:13.729Z,1152
2018-06-06T07:07:34.051Z,1148
2018-06-06T07:07:54.361Z,1156
2018-06-06T07:08:14.629Z,1152
2018-06-06T07:08:34.942Z,1152
2018-06-06T07:08:55.096Z,1160
2018-06-06T07:09:15.314Z,1156
2018-06-06T07:09:35.521Z,1156
2018-06-06T07:09:55.705Z,1160
2018-06-06T07:10:15.942Z,1160
2018-06-06T07:10:36.154Z,1164
2018-06-06T07:10:56.299Z,1160
2018-06-06T07:11:16.463Z,1160
2018-06-06T07:11:36.651Z,1160
2018-06-06T07:11:56.916Z,1156
2018-06-06T07:12:17.109Z,1152
2018-06-06T07:12:37.276Z,1124
2018-06-06T07:12:57.631Z,1116
2018-06-06T07:13:17.838Z,1144
2018-06-06T07:13:38.102Z,1124
2018-06-06T07:13:58.264Z,1124
2018-06-06T07:14:18.539Z,1144
2018-06-06T07:14:38.949Z,1144
2018-06-06T07:14:59.256Z,1120
2018-06-06T07:15:19.598Z,1128
2018-06-06T07:15:39.857Z,1128
2018-06-06T07:16:00.086Z,1124
2018-06-06T07:16:20.308Z,1124
2018-06-06T07:16:40.560Z,1132
2018-06-06T07:17:00.883Z,1132
2018-06-06T07:17:21.157Z,1132
2018-06-06T07:17:41.393Z,1136
2018-06-06T07:18:01.631Z,1140
2018-06-06T07:18:21.771Z,1140
2018-06-06T07:18:41.936Z,1144
2018-06-06T07:19:02.085Z,1144
2018-06-06T07:19:22.281Z,1144
2018-06-06T07:19:42.497Z,1144
2018-06-06T07:20:02.628Z,1140
2018-06-06T07:20:22.801Z,1140
2018-06-06T07:20:42.943Z,1136
2018-06-06T07:21:03.100Z,1128
2018-06-06T07:21:23.242Z,1128
2018-06-06T07:21:43.448Z,1124
2018-06-06T07:22:03.760Z,1128
2018-06-06T07:22:24.018Z,1128
2018-06-06T07:22:44.219Z,1124
2018-06-06T07:23:04.395Z,1124
2018-06-06T07:23:24.616Z,1120
2018-06-06T07:23:44.853Z,1120
2018-06-06T07:24:05.085Z,1120
2018-06-06T07:24:25.287Z,1120
2018-06-06T07:24:45.482Z,1120
2018-06-06T07:25:05.759Z,1120
2018-06-06T07:25:26.084Z,1116
2018-06-06T07:25:46.277Z,1116
2018-06-06T07:26:06.462Z,1112
2018-06-06T07:26:26.617Z,1112
2018-06-06T07:26:47.059Z,1112
2018-06-06T07:27:07.420Z,1112
2018-06-06T07:27:27.663Z,1108
2018-06-06T07:27:47.848Z,1108
2018-06-06T07:28:08.039Z,1108
2018-06-06T07:28:28.236Z,1108
2018-06-06T07:28:48.395Z,1104
2018-06-06T07:29:08.571Z,1104
2018-06-06T07:29:28.753Z,1104
2018-06-06T07:29:48.925Z,1104
2018-06-06T07:30:09.096Z,1104
2018-06-06T07:30:29.280Z,1104
2018-06-06T07:30:49.434Z,1104
2018-06-06T07:31:09.625Z,1100
2018-06-06T07:31:29.785Z,1096
2018-06-06T07:31:50.203Z,1100
2018-06-06T07:32:10.459Z,1100
2018-06-06T07:32:30.634Z,1100
2018-06-06T07:32:50.804Z,1096
2018-06-06T07:33:10.976Z,1100
2018-06-06T07:33:31.149Z,1096
2018-06-06T07:33:51.344Z,1096
2018-06-06T07:34:11.550Z,1096
2018-06-06T07:34:31.813Z,1096
2018-06-06T07:34:52.004Z,1096
2018-06-06T07:35:12.251Z,1092
2018-06-06T07:35:32.468Z,1092
2018-06-06T07:35:52.714Z,1092
2018-06-06T07:36:12.899Z,1092
2018-06-06T07:36:33.070Z,1092
2018-06-06T07:36:53.246Z,1092
2018-06-06T07:37:13.497Z,1096
2018-06-06T07:37:33.746Z,1096
2018-06-06T07:37:53.972Z,1092
2018-06-06T07:38:14.313Z,1096
2018-06-06T07:38:34.514Z,1092
2018-06-06T07:38:54.777Z,1096
2018-06-06T07:39:15.020Z,1100
2018-06-06T07:39:35.281Z,1100
2018-06-06T07:39:55.452Z,1100
2018-06-06T07:40:15.653Z,1100
2018-06-06T07:40:35.930Z,1100
2018-06-06T07:40:56.183Z,1096
2018-06-06T07:41:16.578Z,1088
2018-06-06T07:41:36.827Z,1096
2018-06-06T07:41:56.940Z,1088
2018-06-06T07:42:17.166Z,1056
2018-06-06T07:42:37.347Z,1052
2018-06-06T07:42:57.603Z,1060
2018-06-06T07:43:17.814Z,1048
2018-06-06T07:43:37.994Z,1036
2018-06-06T07:43:58.178Z,1016
2018-06-06T07:44:18.376Z,1032
2018-06-06T07:44:38.516Z,1020
2018-06-06T07:44:58.769Z,1012
2018-06-06T07:45:19.158Z,1000
2018-06-06T07:45:39.641Z,1032
2018-06-06T07:45:59.858Z,1076
2018-06-06T07:46:20.109Z,1080
2018-06-06T07:46:40.351Z,1080
2018-06-06T07:47:00.727Z,1060
2018-06-06T07:47:21.043Z,1020
2018-06-06T07:47:41.401Z,1040
2018-06-06T07:48:01.673Z,1028
2018-06-06T07:48:21.841Z,1044
2018-06-06T07:48:42.021Z,1116
2018-06-06T07:49:02.277Z,1080
2018-06-06T07:49:22.583Z,1128
2018-06-06T07:49:42.785Z,1216
2018-06-06T07:50:02.964Z,1256
2018-06-06T07:50:23.161Z,1304
2018-06-06T07:50:43.304Z,1308
2018-06-06T07:51:04.064Z,1344
2018-06-06T07:51:24.338Z,1404
2018-06-06T07:51:44.574Z,1408
2018-06-06T07:52:04.729Z,1444
2018-06-06T07:52:24.963Z,1452
2018-06-06T07:52:45.216Z,1448
2018-06-06T07:53:05.527Z,1416
2018-06-06T07:53:26.022Z,1460
2018-06-06T07:53:46.202Z,1460
2018-06-06T07:54:06.427Z,1448
2018-06-06T07:54:26.729Z,1436
2018-06-06T07:54:46.939Z,1428
2018-06-06T07:55:07.192Z,1416
2018-06-06T07:55:27.417Z,1400
2018-06-06T07:55:47.773Z,1384
2018-06-06T07:56:08.060Z,1372
2018-06-06T07:56:28.251Z,1360
2018-06-06T07:56:48.542Z,1348
2018-06-06T07:57:08.817Z,1340
2018-06-06T07:57:28.991Z,1332
2018-06-06T07:57:49.206Z,1328
2018-06-06T07:58:09.359Z,1328
2018-06-06T07:58:29.591Z,1324
2018-06-06T07:58:49.791Z,1320
2018-06-06T07:59:09.981Z,1316
2018-06-06T07:59:30.133Z,1320
2018-06-06T07:59:50.238Z,1320
2018-06-06T08:00:10.417Z,1312
2018-06-06T08:00:30.623Z,1312
2018-06-06T08:00:50.827Z,1304
2018-06-06T08:01:11.076Z,1296
2018-06-06T08:01:31.293Z,1284
2018-06-06T08:01:51.486Z,1276
2018-06-06T08:02:12.829Z,1264
2018-06-06T08:02:33.009Z,1256
2018-06-06T08:02:53.176Z,1244
2018-06-06T08:03:13.365Z,1232
2018-06-06T08:03:33.565Z,1224
2018-06-06T08:03:53.796Z,1216
2018-06-06T08:04:13.946Z,1208
2018-06-06T08:04:34.123Z,1200
2018-06-06T08:04:54.299Z,1200
2018-06-06T08:05:14.531Z,1188
2018-06-06T08:05:34.714Z,1188
2018-06-06T08:05:54.883Z,1184
2018-06-06T08:06:15.036Z,1180
2018-06-06T08:06:35.197Z,1176
2018-06-06T08:06:55.365Z,1172
2018-06-06T08:07:15.727Z,1152
2018-06-06T08:07:35.900Z,1168
2018-06-06T08:07:56.114Z,1176
2018-06-06T08:08:16.304Z,1176
2018-06-06T08:08:36.545Z,1180
2018-06-06T08:08:56.688Z,1184
2018-06-06T08:09:17.660Z,1196
2018-06-06T08:09:37.880Z,1200
2018-06-06T08:09:58.015Z,1204
2018-06-06T08:10:18.205Z,1208
2018-06-06T08:10:38.422Z,1212
2018-06-06T08:10:58.677Z,1208
2018-06-06T08:11:18.832Z,1208
2018-06-06T08:11:38.979Z,1200
2018-06-06T08:11:59.167Z,1196
2018-06-06T08:12:19.297Z,1196
2018-06-06T08:12:39.607Z,1188
2018-06-06T08:12:59.756Z,1180
2018-06-06T08:13:19.934Z,1176
2018-06-06T08:13:40.142Z,1168
2018-06-06T08:14:00.377Z,1160
2018-06-06T08:14:20.595Z,1152
2018-06-06T08:14:40.908Z,1144
2018-06-06T08:15:01.151Z,1148
2018-06-06T08:15:21.436Z,1136
2018-06-06T08:15:41.683Z,1140
2018-06-06T08:16:01.864Z,1136
2018-06-06T08:16:22.927Z,1136
2018-06-06T08:16:43.195Z,1132
2018-06-06T08:17:03.395Z,1132
2018-06-06T08:17:23.636Z,1132
2018-06-06T08:17:43.953Z,1128
2018-06-06T08:18:04.117Z,1128
2018-06-06T08:18:24.401Z,1128
2018-06-06T08:18:44.764Z,1128
2018-06-06T08:19:05.019Z,1124
2018-06-06T08:19:25.288Z,1120
2018-06-06T08:19:45.493Z,1124
2018-06-06T08:20:05.886Z,1124
2018-06-06T08:20:26.031Z,1124
2018-06-06T08:20:46.261Z,1128
2018-06-06T08:21:06.640Z,1128
2018-06-06T08:21:27.590Z,1124
2018-06-06T08:21:47.989Z,1128
2018-06-06T08:22:08.209Z,1128
2018-06-06T08:22:28.405Z,1124
2018-06-06T08:22:48.619Z,1124
2018-06-06T08:23:09.011Z,1124
2018-06-06T08:23:29.298Z,1120
2018-06-06T08:23:49.488Z,1124
2018-06-06T08:24:09.801Z,1120
2018-06-06T08:24:30.010Z,1120
2018-06-06T08:24:50.174Z,1116
2018-06-06T08:25:10.320Z,1112
2018-06-06T08:25:30.694Z,1116
2018-06-06T08:25:50.852Z,1120
2018-06-06T08:26:11.007Z,1124
2018-06-06T08:26:31.190Z,1124
2018-06-06T08:26:51.403Z,1124
2018-06-06T08:27:11.626Z,1120
2018-06-06T08:27:31.809Z,1120
2018-06-06T08:27:52.059Z,1140
2018-06-06T08:28:12.302Z,1068
2018-06-06T08:28:32.544Z,1064
2018-06-06T08:28:53.022Z,1040
2018-06-06T08:29:13.187Z,1032
2018-06-06T08:29:33.430Z,1048
2018-06-06T08:29:53.789Z,1044
2018-06-06T08:30:14.179Z,1100
2018-06-06T08:30:34.402Z,1132
2018-06-06T08:30:54.642Z,1092
2018-06-06T08:31:14.989Z,1040
2018-06-06T08:31:35.343Z,1032
2018-06-06T08:31:55.499Z,1032
2018-06-06T08:32:15.739Z,1040
2018-06-06T08:32:35.979Z,1016
2018-06-06T08:32:56.187Z,1000
2018-06-06T08:33:16.363Z,1016
2018-06-06T08:33:36.542Z,1020
2018-06-06T08:33:56.703Z,988
2018-06-06T08:34:16.966Z,976
2018-06-06T08:34:37.239Z,980
2018-06-06T08:34:57.412Z,992
2018-06-06T08:35:17.639Z,984
2018-06-06T08:35:37.820Z,992
2018-06-06T08:35:58.021Z,1012
2018-06-06T08:36:18.202Z,1104
2018-06-06T08:36:38.434Z,1148
2018-06-06T08:36:58.636Z,1120
2018-06-06T08:37:18.808Z,1160
2018-06-06T08:37:39.080Z,1208
2018-06-06T08:37:59.278Z,1244
2018-06-06T08:38:19.559Z,1280
2018-06-06T08:38:39.746Z,1320
2018-06-06T08:39:00.105Z,1396
2018-06-06T08:39:20.571Z,1468
2018-06-06T08:39:41.091Z,1524
2018-06-06T08:40:01.246Z,1568
2018-06-06T08:40:21.391Z,1596
2018-06-06T08:40:41.586Z,1608
2018-06-06T08:41:01.750Z,1544
2018-06-06T08:41:21.968Z,1528
2018-06-06T08:41:42.167Z,1640
2018-06-06T08:42:02.573Z,1672
2018-06-06T08:42:22.794Z,1676
2018-06-06T08:42:43.110Z,1676
2018-06-06T08:43:03.649Z,1680
2018-06-06T08:43:23.800Z,1644
2018-06-06T08:43:44.056Z,1672
2018-06-06T08:44:05.091Z,1668
2018-06-06T08:44:25.276Z,1636
2018-06-06T08:44:45.656Z,1612
2018-06-06T08:45:05.959Z,1600
2018-06-06T08:45:26.359Z,1584
2018-06-06T08:45:46.951Z,1524
2018-06-06T08:46:07.710Z,1496
2018-06-06T08:46:28.129Z,1548
2018-06-06T08:46:49.207Z,1552
2018-06-06T08:47:09.684Z,1588
2018-06-06T08:47:29.999Z,1576
2018-06-06T08:47:50.191Z,1580
2018-06-06T08:48:10.485Z,1536
2018-06-06T08:48:30.735Z,1440
2018-06-06T08:48:50.988Z,1488
2018-06-06T08:49:12.196Z,1484
2018-06-06T08:49:32.420Z,1464
2018-06-06T08:49:52.593Z,1428
2018-06-06T08:50:13.017Z,1392
2018-06-06T08:50:33.982Z,1364
2018-06-06T08:50:54.620Z,1348
2018-06-06T08:51:14.903Z,1304
2018-06-06T08:51:35.182Z,1252
2018-06-06T08:51:55.657Z,1236
2018-06-06T08:52:15.934Z,1184
2018-06-06T08:52:36.120Z,1156
2018-06-06T08:52:56.356Z,1188
2018-06-06T08:53:16.705Z,1112
2018-06-06T08:53:37.017Z,1092
2018-06-06T09:14:37.598Z,1636
2018-06-06T09:14:57.868Z,1616
2018-06-06T09:15:18.241Z,1600
2018-06-06T09:15:38.543Z,1604
2018-06-06T09:15:59.169Z,1612
2018-06-06T09:16:20.014Z,1568
2018-06-06T09:16:41.149Z,1568
2018-06-06T09:17:02.084Z,1584
2018-06-06T09:17:22.334Z,1612
2018-06-06T09:17:42.627Z,1648
2018-06-06T09:18:02.943Z,1672
2018-06-06T09:18:23.208Z,1696
2018-06-06T09:18:43.453Z,1732
2018-06-06T09:19:03.739Z,1744
2018-06-06T09:19:23.984Z,1716
2018-06-06T09:19:44.267Z,1720
2018-06-06T09:20:04.651Z,1716
2018-06-06T09:20:24.856Z,1700
2018-06-06T09:20:45.364Z,1724
2018-06-06T09:21:05.577Z,1688
2018-06-06T09:21:25.787Z,1740
2018-06-06T09:21:46.073Z,1736
2018-06-06T09:22:06.494Z,1716
2018-06-06T09:22:26.987Z,1720
2018-06-06T09:22:47.339Z,1648
2018-06-06T09:23:08.325Z,1624
2018-06-06T09:23:28.848Z,1600
2018-06-06T09:23:49.283Z,1576
2018-06-06T09:24:10.041Z,1568
2018-06-06T09:24:30.262Z,1584
2018-06-06T09:24:50.596Z,1588
2018-06-06T09:25:10.966Z,1600
2018-06-06T09:25:31.234Z,1584
2018-06-06T09:25:51.543Z,1592
2018-06-06T09:26:11.860Z,1608
2018-06-06T09:26:32.139Z,1628
2018-06-06T09:26:52.756Z,1656
2018-06-06T09:27:12.948Z,1692
2018-06-06T09:27:33.465Z,1752
2018-06-06T09:27:53.920Z,1800
2018-06-06T09:28:14.208Z,1848
2018-06-06T09:28:35.924Z,1892
2018-06-06T09:28:57.175Z,1932
2018-06-06T09:29:17.431Z,1900
2018-06-06T09:29:37.926Z,1896
2018-06-06T09:29:58.183Z,1924
2018-06-06T09:30:18.606Z,1948
2018-06-06T09:30:38.907Z,1968
2018-06-06T09:30:59.251Z,1944
2018-06-06T09:31:19.587Z,1964
2018-06-06T09:31:39.816Z,1968
2018-06-06T09:32:00.126Z,1948
2018-06-06T09:32:20.517Z,1940
2018-06-06T09:32:41.612Z,1924
2018-06-06T09:33:01.852Z,1884
2018-06-06T09:33:22.085Z,1852
2018-06-06T09:33:42.283Z,1808
2018-06-06T09:34:02.735Z,1776
2018-06-06T09:34:23.036Z,1740
2018-06-06T09:34:43.485Z,1728
2018-06-06T09:35:03.793Z,1676
2018-06-06T09:35:24.228Z,1652
2018-06-06T09:35:44.550Z,1584
2018-06-06T09:36:04.897Z,1648
2018-06-06T09:36:25.133Z,1664
2018-06-06T09:36:45.511Z,1656
2018-06-06T09:37:05.974Z,1660
2018-06-06T09:37:27.161Z,1632
2018-06-06T09:37:47.551Z,1644
2018-06-06T09:38:07.940Z,1644
2018-06-06T09:38:28.533Z,1632
2018-06-06T09:38:48.830Z,1616
2018-06-06T09:39:09.231Z,1596
2018-06-06T09:39:29.697Z,1572
2018-06-06T09:39:50.224Z,1552
2018-06-06T09:40:10.813Z,1524
2018-06-06T09:40:32.216Z,1476
2018-06-06T09:40:52.639Z,1440
2018-06-06T09:41:13.113Z,1436
2018-06-06T09:41:33.451Z,1384
2018-06-06T09:41:53.679Z,1388
2018-06-06T09:42:14.020Z,1360
2018-06-06T09:42:34.498Z,1388
2018-06-06T09:42:54.852Z,1388
2018-06-06T09:43:15.708Z,1380
2018-06-06T09:43:36.255Z,1356
2018-06-06T09:43:56.481Z,1324
2018-06-06T09:44:16.855Z,1352
2018-06-06T09:44:36.957Z,1352
2018-06-06T09:44:57.545Z,1360
2018-06-06T09:45:17.991Z,1352
2018-06-06T09:45:38.216Z,1332
2018-06-06T09:45:58.627Z,1328
2018-06-06T09:46:18.939Z,1324
2018-06-06T09:46:39.289Z,1324
2018-06-06T09:46:59.822Z,1308
2018-06-06T09:47:20.165Z,1316
2018-06-06T09:47:40.358Z,1320
2018-06-06T09:48:00.725Z,1324
2018-06-06T09:48:20.673Z,1332
2018-06-06T09:48:40.974Z,1348
2018-06-06T09:49:01.156Z,1360
2018-06-06T09:49:22.169Z,1380
2018-06-06T09:49:43.245Z,1396
2018-06-06T09:50:03.432Z,1396
2018-06-06T09:50:23.679Z,1404
2018-06-06T09:50:43.925Z,1412
2018-06-06T09:51:04.439Z,1432
2018-06-06T09:51:24.691Z,1440
2018-06-06T09:51:45.295Z,1460
2018-06-06T09:52:05.540Z,1468
2018-06-06T09:52:26.006Z,1472
2018-06-06T09:52:47.104Z,1472
2018-06-06T09:53:07.535Z,1468
2018-06-06T09:53:27.868Z,1460
2018-06-06T09:53:48.361Z,1432
2018-06-06T09:54:08.252Z,1404
2018-06-06T09:54:28.804Z,1376
2018-06-06T09:54:49.099Z,1336
2018-06-06T09:55:09.313Z,1304
2018-06-06T09:55:29.656Z,1272
2018-06-06T09:55:50.090Z,1240
2018-06-06T09:56:10.292Z,1212
2018-06-06T09:56:30.545Z,1184
2018-06-06T09:56:50.772Z,1168
2018-06-06T09:57:10.988Z,1156
2018-06-06T09:57:31.333Z,1152
2018-06-06T09:57:51.539Z,1156
2018-06-06T09:58:11.819Z,1156
2018-06-06T09:58:31.957Z,1152
2018-06-06T09:58:52.281Z,1152
2018-06-06T09:59:12.282Z,1156
2018-06-06T09:59:32.509Z,1152
2018-06-06T09:59:52.764Z,1148
2018-06-06T10:00:13.218Z,1148
2018-06-06T10:00:33.462Z,1140
2018-06-06T10:00:53.992Z,1140
2018-06-06T10:01:14.320Z,1132
2018-06-06T10:01:34.607Z,1132
2018-06-06T10:01:54.873Z,1128
2018-06-06T10:02:15.247Z,1116
2018-06-06T10:02:35.375Z,1116
2018-06-06T10:02:55.815Z,1108
2018-06-06T10:03:16.120Z,1104
2018-06-06T10:03:36.635Z,1100
2018-06-06T10:03:57.157Z,1096
2018-06-06T10:04:17.576Z,1088
2018-06-06T10:04:37.818Z,1088
2018-06-06T10:04:58.058Z,1092
2018-06-06T10:05:18.353Z,1088
2018-06-06T10:05:38.701Z,1092
2018-06-06T10:05:59.027Z,1088
2018-06-06T10:06:19.226Z,1088
2018-06-06T10:06:39.496Z,1096
2018-06-06T10:06:59.759Z,1092
2018-06-06T10:07:20.288Z,1096
2018-06-06T10:07:40.936Z,1096
2018-06-06T10:08:01.325Z,1084
2018-06-06T10:08:21.847Z,1104
2018-06-06T10:08:42.690Z,1104
2018-06-06T10:09:02.922Z,1108
2018-06-06T10:09:23.077Z,1112
2018-06-06T10:09:43.497Z,1108
2018-06-06T10:10:03.823Z,1072
2018-06-06T10:10:24.350Z,1104
2018-06-06T10:10:44.610Z,1084
2018-06-06T10:11:05.094Z,1088
2018-06-06T10:11:25.333Z,1092
2018-06-06T10:11:45.550Z,1088
2018-06-06T10:12:05.924Z,1076
2018-06-06T10:12:26.286Z,1076
2018-06-06T10:12:46.657Z,1072
2018-06-06T10:13:07.153Z,1064
2018-06-06T10:13:27.407Z,1060
2018-06-06T10:13:47.639Z,1056
2018-06-06T10:14:07.904Z,1052
2018-06-06T10:14:28.389Z,1040
2018-06-06T10:14:48.865Z,1040
2018-06-06T10:15:09.110Z,1036
2018-06-06T10:15:29.389Z,1036
2018-06-06T10:15:49.689Z,1032
2018-06-06T10:16:10.590Z,1032
2018-06-06T10:16:31.751Z,1028
2018-06-06T10:16:52.057Z,1028
2018-06-06T10:17:12.540Z,1036
2018-06-06T10:17:32.827Z,1032
2018-06-06T10:17:53.089Z,1028
2018-06-06T10:18:16.171Z,1032
2018-06-06T10:18:36.509Z,1032
2018-06-06T10:18:56.783Z,1040
2018-06-06T10:19:17.007Z,1036
2018-06-06T10:19:37.549Z,1032
2018-06-06T10:19:58.662Z,1036
2018-06-06T10:20:18.901Z,1032
2018-06-06T10:20:39.110Z,1028
2018-06-06T10:21:01.241Z,1028
2018-06-06T10:21:21.658Z,1024
2018-06-06T10:21:42.245Z,1020